createdAt,value
2019-03-01T00:02:07.322Z,13.30
2019-03-01T00:05:05.607Z,13.30
2019-03-01T00:08:07.144Z,13.30
2019-03-01T00:11:11.506Z,13.30
2019-03-01T00:14:24.356Z,13.30
2019-03-01T00:17:29.473Z,13.30
2019-03-01T00:20:48.990Z,13.30
2019-03-01T00:23:28.682Z,13.30
2019-03-01T00:26:22.510Z,13.30
2019-03-01T00:29:17.328Z,13.30
2019-03-01T00:32:23.692Z,13.30
2019-03-01T00:35:10.492Z,13.20
2019-03-01T00:38:09.010Z,13.20
2019-03-01T00:41:08.811Z,13.30
2019-03-01T00:44:01.536Z,13.20
2019-03-01T00:46:30.994Z,13.20
2019-03-01T00:49:00.349Z,13.30
2019-03-01T00:51:29.858Z,13.30
2019-03-01T00:53:59.369Z,13.20
2019-03-01T00:56:28.821Z,13.30
2019-03-01T00:58:58.115Z,13.20
2019-03-01T01:01:27.460Z,13.20
2019-03-01T01:03:56.970Z,13.20
2019-03-01T01:06:26.480Z,13.20
2019-03-01T01:08:56.020Z,13.20
2019-03-01T01:11:25.506Z,13.20
2019-03-01T01:13:54.957Z,13.20
2019-03-01T01:16:24.749Z,13.30
2019-03-01T01:18:54.190Z,13.20
2019-03-01T01:21:23.689Z,13.20
2019-03-01T01:23:53.329Z,13.20
2019-03-01T01:26:22.657Z,13.20
2019-03-01T01:28:52.045Z,13.30
2019-03-01T01:31:21.934Z,13.20
2019-03-01T01:33:51.654Z,13.20
2019-03-01T01:36:21.128Z,13.20
2019-03-01T01:38:50.526Z,13.20
2019-03-01T01:41:19.894Z,13.20
2019-03-01T01:43:49.906Z,13.20
2019-03-01T01:46:20.320Z,13.20
2019-03-01T01:48:49.704Z,13.20
2019-03-01T01:51:19.141Z,13.20
2019-03-01T01:53:48.467Z,13.20
2019-03-01T01:56:19.120Z,13.20
2019-03-01T01:58:48.540Z,13.20
2019-03-01T02:01:17.971Z,13.20
2019-03-01T02:03:47.439Z,13.20
2019-03-01T02:06:16.783Z,13.20
2019-03-01T02:08:46.058Z,13.20
2019-03-01T02:11:15.471Z,13.20
2019-03-01T02:13:44.870Z,13.20
2019-03-01T02:16:14.219Z,13.20
2019-03-01T02:18:43.408Z,13.20
2019-03-01T02:21:12.812Z,13.20
2019-03-01T02:23:42.171Z,13.20
2019-03-01T02:26:11.602Z,13.20
2019-03-01T02:28:41.571Z,13.20
2019-03-01T02:31:11.276Z,13.20
2019-03-01T02:33:40.830Z,13.20
2019-03-01T02:36:10.107Z,13.20
2019-03-01T02:38:39.584Z,13.20
2019-03-01T02:41:09.028Z,13.20
2019-03-01T02:43:38.325Z,13.20
2019-03-01T02:46:07.671Z,13.20
2019-03-01T02:48:36.893Z,13.20
2019-03-01T02:51:06.950Z,13.20
2019-03-01T02:53:36.369Z,13.20
2019-03-01T02:56:06.308Z,13.20
2019-03-01T02:58:35.610Z,13.20
2019-03-01T03:01:04.973Z,13.20
2019-03-01T03:03:34.440Z,13.20
2019-03-01T03:06:24.290Z,13.20
2019-03-01T03:08:53.546Z,13.20
2019-03-01T03:11:23.015Z,13.20
2019-03-01T03:13:52.418Z,13.20
2019-03-01T03:16:21.891Z,13.20
2019-03-01T03:18:51.295Z,13.20
2019-03-01T03:21:20.624Z,13.20
2019-03-01T03:23:50.709Z,13.20
2019-03-01T03:26:20.014Z,13.20
2019-03-01T03:28:49.330Z,13.20
2019-03-01T03:31:18.685Z,13.20
2019-03-01T03:33:48.107Z,13.20
2019-03-01T03:36:17.371Z,13.20
2019-03-01T03:38:46.777Z,13.20
2019-03-01T03:41:16.342Z,13.20
2019-03-01T03:43:45.655Z,13.20
2019-03-01T03:46:14.974Z,13.20
2019-03-01T03:48:44.331Z,13.20
2019-03-01T03:51:13.652Z,13.20
2019-03-01T03:53:42.866Z,13.20
2019-03-01T03:56:12.259Z,13.20
2019-03-01T03:58:41.711Z,13.20
2019-03-01T04:01:11.045Z,13.20
2019-03-01T04:03:41.167Z,13.20
2019-03-01T04:06:10.577Z,13.20
2019-03-01T04:08:40.056Z,13.20
2019-03-01T04:11:09.546Z,13.20
2019-03-01T04:13:38.976Z,13.20
2019-03-01T04:16:08.322Z,13.20
2019-03-01T04:18:37.855Z,13.20
2019-03-01T04:21:07.341Z,13.20
2019-03-01T04:23:37.235Z,13.20
2019-03-01T04:26:06.754Z,13.20
2019-03-01T04:28:36.271Z,13.20
2019-03-01T04:31:05.735Z,13.20
2019-03-01T04:33:35.246Z,13.20
2019-03-01T04:36:04.662Z,13.20
2019-03-01T04:38:34.063Z,13.20
2019-03-01T04:41:03.584Z,13.20
2019-03-01T04:43:32.999Z,13.20
2019-03-01T04:46:02.396Z,13.20
2019-03-01T04:48:31.861Z,13.20
2019-03-01T04:51:02.246Z,13.20
2019-03-01T04:53:31.715Z,13.20
2019-03-01T04:56:01.153Z,13.20
2019-03-01T04:58:30.457Z,13.20
2019-03-01T05:01:00.160Z,13.20
2019-03-01T05:03:29.453Z,13.20
2019-03-01T05:05:58.786Z,13.20
2019-03-01T05:08:28.109Z,13.20
2019-03-01T05:10:57.602Z,13.20
2019-03-01T05:13:27.487Z,13.20
2019-03-01T05:15:56.873Z,13.20
2019-03-01T05:18:26.403Z,13.20
2019-03-01T05:20:55.894Z,13.20
2019-03-01T05:23:25.857Z,13.20
2019-03-01T05:25:55.237Z,13.20
2019-03-01T05:28:24.595Z,13.20
2019-03-01T05:30:55.279Z,13.20
2019-03-01T05:33:24.654Z,13.20
2019-03-01T05:35:54.135Z,13.20
2019-03-01T05:38:23.430Z,13.20
2019-03-01T05:40:52.838Z,13.20
2019-03-01T05:43:22.311Z,13.20
2019-03-01T05:45:51.760Z,13.20
2019-03-01T05:48:21.299Z,13.20
2019-03-01T05:50:50.698Z,13.20
2019-03-01T05:53:19.986Z,13.20
2019-03-01T05:55:50.618Z,13.20
2019-03-01T05:58:31.090Z,13.20
2019-03-01T06:01:03.888Z,13.20
2019-03-01T06:03:59.413Z,13.20
2019-03-01T06:06:35.478Z,13.20
2019-03-01T06:09:29.021Z,13.20
2019-03-01T06:12:34.380Z,13.20
2019-03-01T06:15:21.350Z,13.20
2019-03-01T06:18:15.196Z,13.20
2019-03-01T06:21:28.577Z,13.20
2019-03-01T06:24:15.260Z,13.20
2019-03-01T06:27:36.297Z,13.20
2019-03-01T06:30:29.837Z,13.20
2019-03-01T06:33:52.122Z,13.20
2019-03-01T06:36:57.787Z,13.20
2019-03-01T06:40:10.705Z,13.20
2019-03-01T06:43:35.516Z,13.20
2019-03-01T06:46:21.499Z,13.20
2019-03-01T06:49:01.289Z,13.20
2019-03-01T06:51:33.166Z,13.20
2019-03-01T06:54:02.632Z,13.20
2019-03-01T06:56:32.145Z,13.20
2019-03-01T06:59:03.704Z,13.20
2019-03-01T07:01:41.906Z,13.10
2019-03-01T07:04:16.214Z,13.20
2019-03-01T07:06:45.532Z,13.10
2019-03-01T07:09:15.065Z,13.20
2019-03-01T07:11:44.513Z,13.20
2019-03-01T07:14:13.762Z,13.20
2019-03-01T07:16:43.063Z,13.20
2019-03-01T07:19:12.414Z,13.20
2019-03-01T07:21:42.084Z,13.20
2019-03-01T07:24:11.365Z,13.10
2019-03-01T07:26:40.770Z,13.10
2019-03-01T07:29:10.241Z,13.20
2019-03-01T07:31:39.559Z,13.20
2019-03-01T07:34:09.042Z,13.20
2019-03-01T07:36:38.574Z,13.20
2019-03-01T07:39:09.621Z,13.10
2019-03-01T07:41:39.054Z,13.10
2019-03-01T07:44:09.533Z,13.20
2019-03-01T07:46:39.042Z,13.10
2019-03-01T07:49:08.564Z,13.10
2019-03-01T07:51:38.120Z,13.10
2019-03-01T07:54:07.430Z,13.10
2019-03-01T07:56:39.557Z,13.10
2019-03-01T07:59:08.581Z,13.10
2019-03-01T08:01:37.894Z,13.10
2019-03-01T08:04:07.182Z,13.10
2019-03-01T08:06:36.547Z,13.10
2019-03-01T08:09:13.079Z,13.10
2019-03-01T08:11:43.077Z,13.10
2019-03-01T08:14:12.379Z,13.10
2019-03-01T08:16:41.702Z,13.10
2019-03-01T08:19:10.996Z,13.10
2019-03-01T08:21:42.624Z,13.10
2019-03-01T08:24:11.927Z,13.10
2019-03-01T08:26:41.325Z,13.10
2019-03-01T08:29:10.609Z,13.10
2019-03-01T08:31:40.011Z,13.10
2019-03-01T08:34:09.449Z,13.10
2019-03-01T08:36:42.474Z,13.10
2019-03-01T08:39:10.254Z,13.10
2019-03-01T08:41:39.565Z,13.10
2019-03-01T08:44:09.908Z,13.10
2019-03-01T08:46:42.003Z,13.10
2019-03-01T08:49:11.457Z,13.10
2019-03-01T08:51:41.092Z,13.10
2019-03-01T08:54:10.409Z,13.10
2019-03-01T08:56:46.345Z,13.10
2019-03-01T08:59:17.694Z,13.10
2019-03-01T09:01:46.915Z,13.10
2019-03-01T09:04:17.456Z,13.10
2019-03-01T09:06:47.172Z,13.10
2019-03-01T09:09:17.668Z,13.10
2019-03-01T09:11:47.792Z,13.10
2019-03-01T09:14:17.230Z,13.10
2019-03-01T09:16:46.600Z,13.10
2019-03-01T09:19:15.855Z,13.10
2019-03-01T09:21:49.943Z,13.10
2019-03-01T09:24:16.197Z,13.10
2019-03-01T09:26:45.646Z,13.10
2019-03-01T09:29:18.551Z,13.10
2019-03-01T09:31:46.132Z,13.00
2019-03-01T09:34:15.676Z,13.00
2019-03-01T09:36:48.297Z,13.00
2019-03-01T09:39:19.023Z,13.10
2019-03-01T09:41:48.621Z,13.00
2019-03-01T09:44:17.968Z,13.00
2019-03-01T09:46:49.039Z,13.00
2019-03-01T09:49:21.480Z,13.00
2019-03-01T09:51:50.081Z,13.00
2019-03-01T09:54:19.641Z,13.00
2019-03-01T09:56:49.139Z,13.00
2019-03-01T09:59:19.345Z,13.00
2019-03-01T10:01:48.718Z,13.00
2019-03-01T10:04:18.029Z,13.00
2019-03-01T10:06:47.338Z,13.00
2019-03-01T10:09:16.945Z,13.00
2019-03-01T10:11:46.217Z,13.00
2019-03-01T10:14:15.589Z,13.00
2019-03-01T10:16:45.006Z,13.00
2019-03-01T10:19:14.419Z,13.00
2019-03-01T10:21:43.812Z,13.00
2019-03-01T10:24:13.285Z,13.00
2019-03-01T10:26:42.568Z,13.00
2019-03-01T10:29:11.888Z,13.00
2019-03-01T10:31:41.300Z,13.00
2019-03-01T10:34:11.543Z,13.00
2019-03-01T10:36:40.842Z,13.00
2019-03-01T10:39:14.344Z,13.00
2019-03-01T10:41:43.709Z,13.00
2019-03-01T10:44:13.044Z,13.00
2019-03-01T10:46:44.179Z,13.00
2019-03-01T10:49:13.487Z,13.00
2019-03-01T10:51:43.689Z,13.00
2019-03-01T10:54:13.198Z,13.00
2019-03-01T10:56:42.611Z,13.00
2019-03-01T10:59:15.105Z,13.00
2019-03-01T11:01:44.479Z,13.00
2019-03-01T11:04:14.016Z,13.00
2019-03-01T11:06:43.595Z,13.00
2019-03-01T11:09:12.973Z,13.00
2019-03-01T11:11:42.428Z,13.00
2019-03-01T11:14:11.797Z,13.00
2019-03-01T11:16:41.110Z,13.00
2019-03-01T11:19:10.565Z,13.00
2019-03-01T11:21:40.091Z,13.00
2019-03-01T11:24:11.079Z,13.00
2019-03-01T11:26:40.552Z,13.00
2019-03-01T11:29:10.027Z,13.00
2019-03-01T11:31:39.373Z,13.00
2019-03-01T11:34:08.923Z,13.00
2019-03-01T11:36:38.225Z,13.00
2019-03-01T11:39:07.699Z,12.90
2019-03-01T11:41:37.123Z,13.00
2019-03-01T11:44:06.459Z,13.00
2019-03-01T11:46:35.946Z,13.00
2019-03-01T11:49:05.289Z,13.00
2019-03-01T11:51:35.991Z,13.00
2019-03-01T11:54:05.590Z,13.00
2019-03-01T11:56:35.768Z,13.00
2019-03-01T11:59:05.169Z,13.00
2019-03-01T12:01:34.653Z,13.00
2019-03-01T12:04:04.118Z,13.00
2019-03-01T12:06:33.432Z,12.90
2019-03-01T12:09:02.719Z,12.90
2019-03-01T12:11:32.178Z,12.90
2019-03-01T12:14:01.383Z,12.90
2019-03-01T12:16:30.930Z,12.90
2019-03-01T12:19:00.359Z,13.00
2019-03-01T12:21:29.646Z,12.90
2019-03-01T12:23:59.996Z,12.90
2019-03-01T12:26:29.458Z,12.90
2019-03-01T12:28:58.819Z,12.90
2019-03-01T12:31:28.280Z,12.90
2019-03-01T12:33:57.928Z,12.90
2019-03-01T12:36:27.311Z,12.90
2019-03-01T12:38:56.820Z,12.90
2019-03-01T12:41:26.087Z,12.90
2019-03-01T12:43:55.322Z,12.90
2019-03-01T12:46:24.704Z,12.90
2019-03-01T12:48:54.064Z,12.90
2019-03-01T12:51:23.463Z,12.90
2019-03-01T12:53:52.836Z,12.90
2019-03-01T12:56:22.291Z,12.90
2019-03-01T12:58:51.530Z,12.90
2019-03-01T13:01:20.946Z,12.90
2019-03-01T13:03:50.427Z,12.90
2019-03-01T13:06:19.828Z,12.90
2019-03-01T13:08:51.372Z,12.90
2019-03-01T13:11:20.431Z,12.90
2019-03-01T13:13:49.862Z,12.90
2019-03-01T13:16:19.649Z,12.90
2019-03-01T13:18:51.418Z,12.90
2019-03-01T13:21:20.032Z,12.90
2019-03-01T13:23:49.455Z,12.90
2019-03-01T13:26:18.878Z,12.90
2019-03-01T13:28:48.347Z,12.90
2019-03-01T13:31:17.862Z,12.90
2019-03-01T13:33:47.371Z,12.90
2019-03-01T13:36:16.894Z,12.90
2019-03-01T13:38:46.329Z,12.90
2019-03-01T13:41:16.369Z,12.90
2019-03-01T13:43:51.152Z,12.90
2019-03-01T13:46:20.660Z,12.90
2019-03-01T13:48:50.925Z,12.90
2019-03-01T13:51:21.266Z,12.90
2019-03-01T13:53:50.661Z,12.90
2019-03-01T13:56:20.194Z,12.90
2019-03-01T13:58:49.706Z,12.90
2019-03-01T14:01:19.114Z,12.90
2019-03-01T14:03:48.556Z,12.90
2019-03-01T14:06:17.902Z,12.90
2019-03-01T14:08:47.149Z,12.90
2019-03-01T14:11:20.438Z,12.90
2019-03-01T14:13:51.064Z,12.90
2019-03-01T14:16:20.457Z,12.90
2019-03-01T14:18:52.384Z,12.90
2019-03-01T14:21:21.798Z,12.90
2019-03-01T14:23:51.174Z,12.90
2019-03-01T14:26:20.438Z,12.90
2019-03-01T14:28:49.819Z,12.90
2019-03-01T14:31:19.297Z,12.90
2019-03-01T14:33:48.786Z,12.90
2019-03-01T14:36:18.162Z,12.90
2019-03-01T14:38:47.495Z,12.90
2019-03-01T14:41:16.912Z,12.90
2019-03-01T14:43:46.250Z,12.90
2019-03-01T14:46:17.684Z,12.90
2019-03-01T14:48:47.020Z,12.90
2019-03-01T14:51:16.545Z,12.90
2019-03-01T14:53:45.874Z,12.90
2019-03-01T14:56:22.865Z,12.90
2019-03-01T14:58:59.864Z,12.90
2019-03-01T15:01:52.506Z,12.90
2019-03-01T15:04:21.957Z,12.90
2019-03-01T15:06:54.759Z,12.90
2019-03-01T15:09:22.327Z,12.90
2019-03-01T15:11:51.771Z,12.90
2019-03-01T15:14:21.227Z,12.90
2019-03-01T15:16:50.508Z,12.90
2019-03-01T15:19:19.880Z,12.90
2019-03-01T15:21:49.324Z,12.90
2019-03-01T15:24:18.626Z,12.80
2019-03-01T15:26:47.924Z,12.80
2019-03-01T15:29:17.227Z,12.90
2019-03-01T15:31:46.536Z,12.80
2019-03-01T15:34:16.365Z,12.80
2019-03-01T15:36:45.736Z,12.80
2019-03-01T15:39:16.739Z,12.80
2019-03-01T15:41:46.203Z,12.80
2019-03-01T15:44:15.840Z,12.80
2019-03-01T15:46:46.432Z,12.80
2019-03-01T15:49:16.784Z,12.80
2019-03-01T15:51:48.102Z,12.80
2019-03-01T15:54:17.667Z,12.80
2019-03-01T15:56:47.096Z,12.80
2019-03-01T15:59:16.398Z,12.80
2019-03-01T16:01:47.318Z,12.80
2019-03-01T16:04:16.954Z,12.80
2019-03-01T16:06:46.404Z,12.80
2019-03-01T16:09:16.800Z,12.80
2019-03-01T16:11:46.244Z,12.80
2019-03-01T16:14:15.940Z,12.80
2019-03-01T16:16:45.809Z,12.80
2019-03-01T16:19:16.763Z,12.80
2019-03-01T16:21:46.066Z,12.80
2019-03-01T16:24:22.263Z,12.80
2019-03-01T16:26:51.824Z,12.80
2019-03-01T16:29:21.857Z,12.80
2019-03-01T16:31:51.169Z,12.80
2019-03-01T16:34:20.504Z,12.80
2019-03-01T16:36:52.437Z,12.80
2019-03-01T16:39:23.804Z,12.80
2019-03-01T16:41:53.076Z,12.80
2019-03-01T16:44:22.378Z,12.80
2019-03-01T16:46:51.786Z,12.80
2019-03-01T16:49:23.637Z,12.70
2019-03-01T16:51:54.065Z,12.70
2019-03-01T16:54:23.362Z,12.70
2019-03-01T16:56:52.846Z,12.70
2019-03-01T16:59:22.145Z,12.70
2019-03-01T17:01:51.438Z,12.70
2019-03-01T17:04:20.677Z,12.70
2019-03-01T17:06:50.414Z,12.70
2019-03-01T17:09:19.771Z,12.70
2019-03-01T17:11:49.200Z,12.70
2019-03-01T17:14:18.533Z,12.70
2019-03-01T17:16:47.865Z,12.70
2019-03-01T17:19:17.146Z,12.70
2019-03-01T17:21:51.916Z,12.70
2019-03-01T17:24:21.355Z,12.70
2019-03-01T17:26:50.830Z,12.70
2019-03-01T17:29:20.321Z,12.70
2019-03-01T17:31:49.793Z,12.70
2019-03-01T17:34:21.808Z,12.70
2019-03-01T17:36:53.315Z,12.70
2019-03-01T17:39:21.178Z,12.70
2019-03-01T17:41:50.545Z,12.70
2019-03-01T17:44:19.717Z,12.70
2019-03-01T17:46:49.094Z,12.70
2019-03-01T17:49:18.441Z,12.70
2019-03-01T17:51:47.951Z,12.70
2019-03-01T17:54:19.036Z,12.70
2019-03-01T17:56:49.095Z,12.70
2019-03-01T17:59:18.357Z,12.70
2019-03-01T18:01:47.777Z,12.70
2019-03-01T18:04:17.185Z,12.70
2019-03-01T18:06:48.637Z,12.70
2019-03-01T18:09:17.482Z,12.70
2019-03-01T18:11:46.822Z,12.70
2019-03-01T18:14:16.315Z,12.70
2019-03-01T18:16:45.947Z,12.70
2019-03-01T18:19:15.350Z,12.70
2019-03-01T18:21:46.316Z,12.70
2019-03-01T18:24:15.794Z,12.70
2019-03-01T18:26:46.455Z,12.70
2019-03-01T18:29:15.693Z,12.70
2019-03-01T18:31:45.125Z,12.70
2019-03-01T18:34:14.481Z,12.70
2019-03-01T18:36:45.765Z,12.70
2019-03-01T18:39:14.837Z,12.60
2019-03-01T18:41:44.358Z,12.60
2019-03-01T18:44:13.593Z,12.60
2019-03-01T18:46:42.902Z,12.60
2019-03-01T18:49:12.223Z,12.60
2019-03-01T18:51:43.268Z,12.60
2019-03-01T18:54:12.546Z,12.60
2019-03-01T18:56:41.868Z,12.60
2019-03-01T18:59:11.343Z,12.60
2019-03-01T19:01:42.920Z,12.60
2019-03-01T19:04:16.421Z,12.60
2019-03-01T19:06:43.967Z,12.60
2019-03-01T19:09:16.491Z,12.60
2019-03-01T19:11:45.388Z,12.60
2019-03-01T19:14:14.839Z,12.60
2019-03-01T19:16:44.077Z,12.60
2019-03-01T19:19:13.507Z,12.60
2019-03-01T19:21:42.803Z,12.60
2019-03-01T19:24:12.093Z,12.60
2019-03-01T19:26:41.796Z,12.60
2019-03-01T19:29:11.027Z,12.60
2019-03-01T19:31:40.270Z,12.60
2019-03-01T19:34:13.053Z,12.60
2019-03-01T19:36:40.693Z,12.60
2019-03-01T19:39:18.391Z,12.60
2019-03-01T19:41:48.951Z,12.60
2019-03-01T19:44:18.321Z,12.60
2019-03-01T19:46:51.164Z,12.60
2019-03-01T19:49:19.806Z,12.60
2019-03-01T19:51:51.186Z,12.60
2019-03-01T19:54:20.743Z,12.60
2019-03-01T19:56:50.170Z,12.60
2019-03-01T19:59:19.474Z,12.60
2019-03-01T20:01:49.437Z,12.60
2019-03-01T20:04:21.208Z,12.50
2019-03-01T20:06:50.953Z,12.50
2019-03-01T20:09:20.359Z,12.50
2019-03-01T20:11:49.668Z,12.50
2019-03-01T20:14:19.276Z,12.50
2019-03-01T20:16:48.675Z,12.50
2019-03-01T20:19:20.791Z,12.50
2019-03-01T20:21:48.847Z,12.50
2019-03-01T20:24:18.861Z,12.50
2019-03-01T20:26:48.253Z,12.50
2019-03-01T20:29:17.655Z,12.50
2019-03-01T20:31:46.931Z,12.50
2019-03-01T20:34:16.187Z,12.50
2019-03-01T20:36:45.634Z,12.50
2019-03-01T20:39:15.554Z,12.50
2019-03-01T20:41:46.596Z,12.50
2019-03-01T20:44:21.575Z,12.50
2019-03-01T20:46:50.862Z,12.50
2019-03-01T20:49:20.085Z,12.50
2019-03-01T20:51:49.541Z,12.50
2019-03-01T20:54:21.827Z,12.50
2019-03-01T20:56:51.702Z,12.50
2019-03-01T20:59:20.566Z,12.50
2019-03-01T21:01:50.015Z,12.50
2019-03-01T21:04:19.282Z,12.50
2019-03-01T21:06:49.401Z,12.50
2019-03-01T21:09:18.742Z,12.50
2019-03-01T21:11:48.222Z,12.50
2019-03-01T21:14:17.539Z,12.50
2019-03-01T21:16:47.495Z,12.50
2019-03-01T21:19:16.978Z,12.50
2019-03-01T21:21:46.272Z,12.50
2019-03-01T21:24:15.732Z,12.50
2019-03-01T21:26:47.852Z,12.50
2019-03-01T21:29:16.215Z,12.50
2019-03-01T21:31:45.739Z,12.50
2019-03-01T21:34:15.296Z,12.50
2019-03-01T21:36:44.756Z,12.50
2019-03-01T21:39:14.234Z,12.50
2019-03-01T21:41:44.767Z,12.50
2019-03-01T21:44:14.954Z,12.50
2019-03-01T21:46:44.280Z,12.50
2019-03-01T21:49:13.732Z,12.50
2019-03-01T21:51:43.690Z,12.50
2019-03-01T21:54:16.348Z,12.50
2019-03-01T21:56:55.581Z,12.50
2019-03-01T21:59:17.301Z,12.50
2019-03-01T22:01:46.164Z,12.50
2019-03-01T22:04:15.712Z,12.50
2019-03-01T22:06:45.147Z,12.50
2019-03-01T22:09:14.441Z,12.50
2019-03-01T22:11:45.845Z,12.50
2019-03-01T22:14:15.162Z,12.50
2019-03-01T22:16:44.504Z,12.50
2019-03-01T22:19:13.925Z,12.50
2019-03-01T22:21:43.546Z,12.50
2019-03-01T22:24:12.894Z,12.50
2019-03-01T22:26:42.177Z,12.50
2019-03-01T22:29:12.096Z,12.50
2019-03-01T22:31:41.646Z,12.50
2019-03-01T22:34:10.994Z,12.50
2019-03-01T22:36:40.430Z,12.50
2019-03-01T22:39:10.057Z,12.50
2019-03-01T22:41:40.398Z,12.50
2019-03-01T22:44:09.774Z,12.50
2019-03-01T22:46:38.965Z,12.50
2019-03-01T22:49:08.414Z,12.50
2019-03-01T22:51:37.873Z,12.50
2019-03-01T22:54:07.125Z,12.50
2019-03-01T22:56:36.498Z,12.50
2019-03-01T22:59:08.574Z,12.50
2019-03-01T23:01:41.966Z,12.50
2019-03-01T23:04:11.668Z,12.50
2019-03-01T23:06:40.960Z,12.50
2019-03-01T23:09:14.749Z,12.50
2019-03-01T23:11:44.216Z,12.40
2019-03-01T23:14:13.679Z,12.50
2019-03-01T23:16:43.197Z,12.40
2019-03-01T23:19:15.899Z,12.40
2019-03-01T23:21:43.617Z,12.50
2019-03-01T23:24:12.963Z,12.40
2019-03-01T23:26:42.417Z,12.40
2019-03-01T23:29:12.219Z,12.40
2019-03-01T23:31:41.635Z,12.40
2019-03-01T23:34:11.278Z,12.40
2019-03-01T23:36:40.486Z,12.40
2019-03-01T23:39:15.671Z,12.40
2019-03-01T23:41:46.326Z,12.40
2019-03-01T23:44:15.946Z,12.40
2019-03-01T23:46:45.408Z,12.40
2019-03-01T23:49:14.926Z,12.40
2019-03-01T23:51:45.433Z,12.40
2019-03-01T23:54:15.362Z,12.40
2019-03-01T23:56:44.690Z,12.40
2019-03-01T23:59:14.206Z,12.40
